sensor_id;sensor_type;location;lat;lon;timestamp;pressure;altitude;pressure_sealevel;temperature;humidity
54038;BME280;39954;48.844;9.726;2024-03-25T00:00:59;95311.44;;;1.63;100.00
54038;BME280;39954;48.844;9.726;2024-03-25T00:02:00;95315.69;;;1.62;100.00
54038;BME280;39954;48.844;9.726;2024-03-25T00:03:02;95314.97;;;1.59;100.00
54038;BME280;39954;48.844;9.726;2024-03-25T00:04:03;95318.44;;;1.58;100.00
54038;BME280;39954;48.844;9.726;2024-03-25T00:05:04;95319.38;;;1.55;100.00
54038;BME280;39954;48.844;9.726;2024-03-25T00:06:06;95321.94;;;1.55;100.00
54038;BME280;39954;48.844;9.726;2024-03-25T00:07:07;95325.44;;;1.52;100.00
54038;BME280;39954;48.844;9.726;2024-03-25T00:08:08;95314.28;;;1.53;100.00
54038;BME280;39954;48.844;9.726;2024-03-25T00:09:09;95316.56;;;1.63;100.00
54038;BME280;39954;48.844;9.726;2024-03-25T00:10:11;95323.56;;;1.58;100.00
54038;BME280;39954;48.844;9.726;2024-03-25T00:11:12;95326.97;;;1.56;100.00
54038;BME280;39954;48.844;9.726;2024-03-25T00:12:13;95321.13;;;1.53;100.00
54038;BME280;39954;48.844;9.726;2024-03-25T00:13:14;95316.09;;;1.51;100.00
54038;BME280;39954;48.844;9.726;2024-03-25T00:14:18;95330.66;;;1.49;100.00
54038;BME280;39954;48.844;9.726;2024-03-25T00:15:19;95323.81;;;1.50;100.00
54038;BME280;39954;48.844;9.726;2024-03-25T00:16:20;95320.41;;;1.49;100.00
54038;BME280;39954;48.844;9.726;2024-03-25T00:17:21;95326.31;;;1.51;100.00
54038;BME280;39954;48.844;9.726;2024-03-25T00:18:22;95324.69;;;1.49;100.00
54038;BME280;39954;48.844;9.726;2024-03-25T00:19:24;95328.19;;;1.46;100.00
54038;BME280;39954;48.844;9.726;2024-03-25T00:20:25;95330.66;;;1.49;100.00
54038;BME280;39954;48.844;9.726;2024-03-25T00:21:26;95322.06;;;1.50;100.00
54038;BME280;39954;48.844;9.726;2024-03-25T00:22:27;95326.25;;;1.53;100.00
54038;BME280;39954;48.844;9.726;2024-03-25T00:23:28;95317.75;;;1.52;100.00
54038;BME280;39954;48.844;9.726;2024-03-25T00:24:29;95317.75;;;1.52;100.00
54038;BME280;39954;48.844;9.726;2024-03-25T00:25:31;95318.66;;;1.51;100.00
54038;BME280;39954;48.844;9.726;2024-03-25T00:26:32;95317.75;;;1.52;100.00
54038;BME280;39954;48.844;9.726;2024-03-25T00:27:38;95312.63;;;1.52;100.00
54038;BME280;39954;48.844;9.726;2024-03-25T00:28:39;95324.75;;;1.47;100.00
54038;BME280;39954;48.844;9.726;2024-03-25T00:29:43;95322.28;;;1.44;100.00
54038;BME280;39954;48.844;9.726;2024-03-25T00:30:44;95318.06;;;1.43;100.00
54038;BME280;39954;48.844;9.726;2024-03-25T00:31:54;95324.06;;;1.42;100.00
54038;BME280;39954;48.844;9.726;2024-03-25T00:32:56;95319.75;;;1.43;100.00
54038;BME280;39954;48.844;9.726;2024-03-25T00:33:56;95324.16;;;1.39;100.00
54038;BME280;39954;48.844;9.726;2024-03-25T00:34:58;95325.84;;;1.40;100.00
54038;BME280;39954;48.844;9.726;2024-03-25T00:35:59;95322.50;;;1.38;100.00
54038;BME280;39954;48.844;9.726;2024-03-25T00:37:00;95327.63;;;1.38;100.00
54038;BME280;39954;48.844;9.726;2024-03-25T00:38:01;95316.53;;;1.38;100.00
54038;BME280;39954;48.844;9.726;2024-03-25T00:39:02;95315.69;;;1.37;100.00
54038;BME280;39954;48.844;9.726;2024-03-25T00:40:05;95321.66;;;1.38;100.00
54038;BME280;39954;48.844;9.726;2024-03-25T00:41:07;95319.03;;;1.39;100.00
54038;BME280;39954;48.844;9.726;2024-03-25T00:42:14;95314.75;;;1.40;100.00
54038;BME280;39954;48.844;9.726;2024-03-25T00:43:15;95315.50;;;1.43;100.00
54038;BME280;39954;48.844;9.726;2024-03-25T00:44:16;95312.16;;;1.41;100.00
54038;BME280;39954;48.844;9.726;2024-03-25T00:45:20;95314.75;;;1.40;100.00
54038;BME280;39954;48.844;9.726;2024-03-25T00:46:21;95319.00;;;1.41;100.00
54038;BME280;39954;48.844;9.726;2024-03-25T00:47:22;95319.03;;;1.39;100.00
54038;BME280;39954;48.844;9.726;2024-03-25T00:48:23;95315.59;;;1.40;100.00
54038;BME280;39954;48.844;9.726;2024-03-25T00:49:24;95313.88;;;1.41;100.00
54038;BME280;39954;48.844;9.726;2024-03-25T00:50:25;95312.16;;;1.41;100.00
54038;BME280;39954;48.844;9.726;2024-03-25T00:51:26;95315.59;;;1.40;100.00
54038;BME280;39954;48.844;9.726;2024-03-25T00:52:28;95315.69;;;1.37;100.00
54038;BME280;39954;48.844;9.726;2024-03-25T00:53:28;95315.59;;;1.40;100.00
54038;BME280;39954;48.844;9.726;2024-03-25T00:54:30;95312.34;;;1.35;100.00
54038;BME280;39954;48.844;9.726;2024-03-25T00:55:31;95313.19;;;1.36;100.00
54038;BME280;39954;48.844;9.726;2024-03-25T00:56:32;95317.56;;;1.32;100.00
54038;BME280;39954;48.844;9.726;2024-03-25T00:57:39;95316.81;;;1.28;100.00
54038;BME280;39954;48.844;9.726;2024-03-25T00:58:40;95316.09;;;1.25;100.00
54038;BME280;39954;48.844;9.726;2024-03-25T00:59:41;95303.28;;;1.25;100.00
54038;BME280;39954;48.844;9.726;2024-03-25T01:00:45;95312.72;;;1.23;100.00
54038;BME280;39954;48.844;9.726;2024-03-25T01:01:46;95309.41;;;1.21;100.00
54038;BME280;39954;48.844;9.726;2024-03-25T01:02:56;95312.94;;;1.17;100.00
54038;BME280;39954;48.844;9.726;2024-03-25T01:03:58;95313.16;;;1.10;100.00
54038;BME280;39954;48.844;9.726;2024-03-25T01:04:59;95310.59;;;1.10;100.00
54038;BME280;39954;48.844;9.726;2024-03-25T01:06:00;95306.38;;;1.09;100.00
54038;BME280;39954;48.844;9.726;2024-03-25T01:07:01;95309.69;;;1.11;100.00
54038;BME280;39954;48.844;9.726;2024-03-25T01:08:06;95306.16;;;1.16;100.00
54038;BME280;39954;48.844;9.726;2024-03-25T01:09:07;95304.47;;;1.15;100.00
54038;BME280;39954;48.844;9.726;2024-03-25T01:10:08;95303.75;;;1.11;100.00
54038;BME280;39954;48.844;9.726;2024-03-25T01:11:09;95306.25;;;1.13;100.00
54038;BME280;39954;48.844;9.726;2024-03-25T01:12:10;95302.09;;;1.10;100.00
54038;BME280;39954;48.844;9.726;2024-03-25T01:13:12;95304.75;;;1.07;100.00
54038;BME280;39954;48.844;9.726;2024-03-25T01:14:13;95311.53;;;1.08;100.00
54038;BME280;39954;48.844;9.726;2024-03-25T01:15:15;95309.00;;;1.06;100.00
54038;BME280;39954;48.844;9.726;2024-03-25T01:16:19;95315.75;;;1.09;100.00
54038;BME280;39954;48.844;9.726;2024-03-25T01:17:20;95308.94;;;1.09;100.00
54038;BME280;39954;48.844;9.726;2024-03-25T01:18:21;95304.78;;;1.05;100.00
54038;BME280;39954;48.844;9.726;2024-03-25T01:19:22;95303.97;;;1.03;100.00
54038;BME280;39954;48.844;9.726;2024-03-25T01:20:23;95300.66;;;1.01;100.00
54038;BME280;39954;48.844;9.726;2024-03-25T01:21:25;95300.75;;;0.98;100.00
54038;BME280;39954;48.844;9.726;2024-03-25T01:22:26;95302.34;;;1.01;100.00
54038;BME280;39954;48.844;9.726;2024-03-25T01:23:27;95303.97;;;1.03;100.00
54038;BME280;39954;48.844;9.726;2024-03-25T01:24:28;95306.38;;;1.09;100.00
54038;BME280;39954;48.844;9.726;2024-03-25T01:25:29;95301.25;;;1.09;100.00
54038;BME280;39954;48.844;9.726;2024-03-25T01:26:30;95306.25;;;1.13;100.00
54038;BME280;39954;48.844;9.726;2024-03-25T01:27:31;95300.34;;;1.10;100.00
54038;BME280;39954;48.844;9.726;2024-03-25T01:28:32;95301.31;;;1.06;100.00
54038;BME280;39954;48.844;9.726;2024-03-25T01:29:33;95297.91;;;1.07;100.00
54038;BME280;39954;48.844;9.726;2024-03-25T01:30:35;95302.19;;;1.07;100.00
54038;BME280;39954;48.844;9.726;2024-03-25T01:31:38;95296.31;;;1.03;100.00
54038;BME280;39954;48.844;9.726;2024-03-25T01:32:40;95296.31;;;1.03;100.00
54038;BME280;39954;48.844;9.726;2024-03-25T01:33:41;95299.75;;;1.02;100.00
54038;BME280;39954;48.844;9.726;2024-03-25T01:34:42;95295.53;;;1.01;100.00
54038;BME280;39954;48.844;9.726;2024-03-25T01:35:43;95295.38;;;1.06;100.00
54038;BME280;39954;48.844;9.726;2024-03-25T01:36:44;95296.25;;;1.05;100.00
54038;BME280;39954;48.844;9.726;2024-03-25T01:37:45;95299.34;;;1.15;100.00
54038;BME280;39954;48.844;9.726;2024-03-25T01:38:46;95307.13;;;1.11;100.00
54038;BME280;39954;48.844;9.726;2024-03-25T01:39:48;95301.91;;;1.15;100.00
54038;BME280;39954;48.844;9.726;2024-03-25T01:40:49;95296.91;;;1.11;100.00
54038;BME280;39954;48.844;9.726;2024-03-25T01:41:50;95300.25;;;1.14;100.00
54038;BME280;39954;48.844;9.726;2024-03-25T01:42:55;95297.00;;;1.08;100.00
54038;BME280;39954;48.844;9.726;2024-03-25T01:43:56;95296.19;;;1.06;100.00
54038;BME280;39954;48.844;9.726;2024-03-25T01:44:58;95287.44;;;1.14;100.00
54038;BME280;39954;48.844;9.726;2024-03-25T01:45:59;95301.03;;;1.16;100.00
54038;BME280;39954;48.844;9.726;2024-03-25T01:47:03;95293.41;;;1.14;100.00
54038;BME280;39954;48.844;9.726;2024-03-25T01:48:07;95296.72;;;1.18;100.00
54038;BME280;39954;48.844;9.726;2024-03-25T01:49:08;95293.31;;;1.17;100.00
54038;BME280;39954;48.844;9.726;2024-03-25T01:50:10;95301.03;;;1.16;100.00
54038;BME280;39954;48.844;9.726;2024-03-25T01:51:12;95297.69;;;1.14;100.00
54038;BME280;39954;48.844;9.726;2024-03-25T01:52:14;95296.13;;;1.09;100.00
54038;BME280;39954;48.844;9.726;2024-03-25T01:53:15;95292.47;;;1.17;100.00
54038;BME280;39954;48.844;9.726;2024-03-25T01:54:16;95295.16;;;1.12;100.00
54038;BME280;39954;48.844;9.726;2024-03-25T01:55:22;95296.97;;;1.10;100.00
54038;BME280;39954;48.844;9.726;2024-03-25T01:56:26;95301.41;;;1.03;100.00
54038;BME280;39954;48.844;9.726;2024-03-25T01:57:28;95293.81;;;1.02;100.00
54038;BME280;39954;48.844;9.726;2024-03-25T01:58:30;95294.75;;;0.99;100.00
54038;BME280;39954;48.844;9.726;2024-03-25T01:59:31;95299.03;;;0.99;100.00
54038;BME280;39954;48.844;9.726;2024-03-25T02:00:33;95300.06;;;0.93;100.00
54038;BME280;39954;48.844;9.726;2024-03-25T02:01:35;95298.38;;;0.92;100.00
54038;BME280;39954;48.844;9.726;2024-03-25T02:02:40;95301.81;;;0.91;100.00
54038;BME280;39954;48.844;9.726;2024-03-25T02:03:42;95300.09;;;0.92;100.00
54038;BME280;39954;48.844;9.726;2024-03-25T02:04:44;95299.38;;;0.88;100.00
54038;BME280;39954;48.844;9.726;2024-03-25T02:05:45;95300.25;;;0.87;100.00
54038;BME280;39954;48.844;9.726;2024-03-25T02:06:47;95295.28;;;0.82;100.00
54038;BME280;39954;48.844;9.726;2024-03-25T02:07:50;95304.72;;;0.80;100.00
54038;BME280;39954;48.844;9.726;2024-03-25T02:08:53;95298.66;;;0.83;100.00
54038;BME280;39954;48.844;9.726;2024-03-25T02:09:55;95293.75;;;0.77;100.00
54038;BME280;39954;48.844;9.726;2024-03-25T02:10:58;95291.19;;;0.77;100.00
54038;BME280;39954;48.844;9.726;2024-03-25T02:11:59;95292.09;;;0.76;100.00
54038;BME280;39954;48.844;9.726;2024-03-25T02:13:01;95306.56;;;0.75;100.00
54038;BME280;39954;48.844;9.726;2024-03-25T02:14:02;95301.41;;;0.77;100.00
54038;BME280;39954;48.844;9.726;2024-03-25T02:15:05;95294.56;;;0.77;100.00
54038;BME280;39954;48.844;9.726;2024-03-25T02:16:07;95302.22;;;0.79;100.00
54038;BME280;39954;48.844;9.726;2024-03-25T02:17:08;95298.75;;;0.80;100.00
54038;BME280;39954;48.844;9.726;2024-03-25T02:18:12;95300.50;;;0.79;100.00
54038;BME280;39954;48.844;9.726;2024-03-25T02:19:15;95307.97;;;0.85;100.00
54038;BME280;39954;48.844;9.726;2024-03-25T02:20:16;95299.47;;;0.85;100.00
54038;BME280;39954;48.844;9.726;2024-03-25T02:21:17;95302.03;;;0.85;100.00
54038;BME280;39954;48.844;9.726;2024-03-25T02:22:18;95295.13;;;0.87;100.00
54038;BME280;39954;48.844;9.726;2024-03-25T02:23:19;95294.19;;;0.89;100.00
54038;BME280;39954;48.844;9.726;2024-03-25T02:24:21;95305.22;;;0.92;100.00
54038;BME280;39954;48.844;9.726;2024-03-25T02:25:24;95300.16;;;0.90;100.00
54038;BME280;39954;48.844;9.726;2024-03-25T02:26:28;95298.38;;;0.92;100.00
54038;BME280;39954;48.844;9.726;2024-03-25T02:27:30;95294.16;;;0.91;100.00
54038;BME280;39954;48.844;9.726;2024-03-25T02:28:32;95295.69;;;0.97;100.00
54038;BME280;39954;48.844;9.726;2024-03-25T02:29:33;95296.56;;;0.96;100.00
54038;BME280;39954;48.844;9.726;2024-03-25T02:30:35;95296.50;;;0.97;100.00
54038;BME280;39954;48.844;9.726;2024-03-25T02:31:36;95293.09;;;0.98;100.00
54038;BME280;39954;48.844;9.726;2024-03-25T02:32:37;95295.69;;;0.97;100.00
54038;BME280;39954;48.844;9.726;2024-03-25T02:33:38;95288.03;;;0.95;100.00
54038;BME280;39954;48.844;9.726;2024-03-25T02:34:44;95290.34;;;1.03;100.00
54038;BME280;39954;48.844;9.726;2024-03-25T02:35:47;95291.97;;;1.05;100.00
54038;BME280;39954;48.844;9.726;2024-03-25T02:36:48;95291.16;;;1.05;100.00
54038;BME280;39954;48.844;9.726;2024-03-25T02:37:50;95290.31;;;1.04;100.00
54038;BME280;39954;48.844;9.726;2024-03-25T02:38:52;95285.19;;;1.04;100.00
54038;BME280;39954;48.844;9.726;2024-03-25T02:39:54;95291.09;;;1.06;100.00
54038;BME280;39954;48.844;9.726;2024-03-25T02:40:56;95285.19;;;1.04;100.00
54038;BME280;39954;48.844;9.726;2024-03-25T02:42:00;95288.44;;;1.09;100.00
54038;BME280;39954;48.844;9.726;2024-03-25T02:43:02;95286.66;;;1.11;100.00
54038;BME280;39954;48.844;9.726;2024-03-25T02:44:04;95296.84;;;1.13;100.00
54038;BME280;39954;48.844;9.726;2024-03-25T02:45:06;95289.03;;;1.18;100.00
54038;BME280;39954;48.844;9.726;2024-03-25T02:46:08;95288.94;;;1.21;100.00
54038;BME280;39954;48.844;9.726;2024-03-25T02:47:09;95292.38;;;1.20;100.00
54038;BME280;39954;48.844;9.726;2024-03-25T02:48:10;95290.69;;;1.19;100.00
54038;BME280;39954;48.844;9.726;2024-03-25T02:49:12;95293.31;;;1.17;100.00
54038;BME280;39954;48.844;9.726;2024-03-25T02:50:13;95290.00;;;1.14;100.00
54038;BME280;39954;48.844;9.726;2024-03-25T02:51:14;95292.59;;;1.12;100.00
54038;BME280;39954;48.844;9.726;2024-03-25T02:52:15;95297.78;;;1.10;100.00
54038;BME280;39954;48.844;9.726;2024-03-25T02:53:16;95289.31;;;1.08;100.00
54038;BME280;39954;48.844;9.726;2024-03-25T02:54:17;95291.16;;;1.05;100.00
54038;BME280;39954;48.844;9.726;2024-03-25T02:55:18;95294.53;;;1.05;100.00
54038;BME280;39954;48.844;9.726;2024-03-25T02:56:19;95300.59;;;1.03;100.00
54038;BME280;39954;48.844;9.726;2024-03-25T02:57:23;95297.81;;;1.09;100.00
54038;BME280;39954;48.844;9.726;2024-03-25T02:58:24;95296.91;;;1.11;100.00
54038;BME280;39954;48.844;9.726;2024-03-25T02:59:25;95298.72;;;1.08;100.00
54038;BME280;39954;48.844;9.726;2024-03-25T03:00:27;95294.44;;;1.08;100.00
54038;BME280;39954;48.844;9.726;2024-03-25T03:01:28;95302.09;;;1.10;100.00
54038;BME280;39954;48.844;9.726;2024-03-25T03:02:29;95297.00;;;1.08;100.00
54038;BME280;39954;48.844;9.726;2024-03-25T03:03:30;95301.31;;;1.06;100.00
54038;BME280;39954;48.844;9.726;2024-03-25T03:04:31;95301.25;;;1.09;100.00
54038;BME280;39954;48.844;9.726;2024-03-25T03:05:32;95297.06;;;1.07;100.00
54038;BME280;39954;48.844;9.726;2024-03-25T03:06:33;95294.44;;;1.08;100.00
54038;BME280;39954;48.844;9.726;2024-03-25T03:07:34;95303.00;;;1.07;100.00
54038;BME280;39954;48.844;9.726;2024-03-25T03:08:35;95300.50;;;1.06;100.00
54038;BME280;39954;48.844;9.726;2024-03-25T03:09:37;95304.66;;;1.08;100.00
54038;BME280;39954;48.844;9.726;2024-03-25T03:10:38;95308.94;;;1.09;100.00
54038;BME280;39954;48.844;9.726;2024-03-25T03:11:39;95303.75;;;1.11;100.00
54038;BME280;39954;48.844;9.726;2024-03-25T03:12:43;95300.38;;;1.09;100.00
54038;BME280;39954;48.844;9.726;2024-03-25T03:13:44;95292.78;;;1.07;100.00
54038;BME280;39954;48.844;9.726;2024-03-25T03:14:45;95295.38;;;1.06;100.00
54038;BME280;39954;48.844;9.726;2024-03-25T03:15:47;95299.56;;;1.08;100.00
54038;BME280;39954;48.844;9.726;2024-03-25T03:16:48;95300.50;;;1.06;100.00
54038;BME280;39954;48.844;9.726;2024-03-25T03:17:50;95302.13;;;1.08;100.00
54038;BME280;39954;48.844;9.726;2024-03-25T03:18:51;95303.00;;;1.07;100.00
54038;BME280;39954;48.844;9.726;2024-03-25T03:19:52;95302.19;;;1.07;100.00
54038;BME280;39954;48.844;9.726;2024-03-25T03:20:54;95305.50;;;1.09;100.00
54038;BME280;39954;48.844;9.726;2024-03-25T03:21:55;95302.22;;;1.05;100.00
54038;BME280;39954;48.844;9.726;2024-03-25T03:22:56;95305.66;;;1.04;100.00
54038;BME280;39954;48.844;9.726;2024-03-25T03:23:57;95301.38;;;1.05;100.00
54038;BME280;39954;48.844;9.726;2024-03-25T03:24:58;95300.56;;;1.04;100.00
54038;BME280;39954;48.844;9.726;2024-03-25T03:26:00;95297.19;;;1.02;100.00
54038;BME280;39954;48.844;9.726;2024-03-25T03:27:01;95307.44;;;1.02;100.00
54038;BME280;39954;48.844;9.726;2024-03-25T03:28:05;95301.53;;;1.00;100.00
54038;BME280;39954;48.844;9.726;2024-03-25T03:29:06;95303.22;;;1.01;100.00
54038;BME280;39954;48.844;9.726;2024-03-25T03:30:08;95302.41;;;0.99;100.00
54038;BME280;39954;48.844;9.726;2024-03-25T03:31:09;95302.41;;;0.99;100.00
54038;BME280;39954;48.844;9.726;2024-03-25T03:32:10;95304.91;;;1.01;100.00
54038;BME280;39954;48.844;9.726;2024-03-25T03:33:11;95303.22;;;1.01;100.00
54038;BME280;39954;48.844;9.726;2024-03-25T03:34:12;95295.63;;;0.98;100.00
54038;BME280;39954;48.844;9.726;2024-03-25T03:35:13;95299.03;;;0.99;100.00
54038;BME280;39954;48.844;9.726;2024-03-25T03:36:15;95298.19;;;0.98;100.00
54038;BME280;39954;48.844;9.726;2024-03-25T03:37:16;95301.63;;;0.97;100.00
54038;BME280;39954;48.844;9.726;2024-03-25T03:38:18;95294.75;;;0.99;100.00
54038;BME280;39954;48.844;9.726;2024-03-25T03:39:19;95299.13;;;0.96;100.00
54038;BME280;39954;48.844;9.726;2024-03-25T03:40:20;95300.06;;;0.93;100.00
54038;BME280;39954;48.844;9.726;2024-03-25T03:41:21;95289.06;;;0.89;100.00
54038;BME280;39954;48.844;9.726;2024-03-25T03:42:22;95299.41;;;0.86;100.00
54038;BME280;39954;48.844;9.726;2024-03-25T03:43:26;95295.13;;;0.87;100.00
54038;BME280;39954;48.844;9.726;2024-03-25T03:44:27;95291.78;;;0.85;100.00
54038;BME280;39954;48.844;9.726;2024-03-25T03:45:33;95299.59;;;0.80;100.00
54038;BME280;39954;48.844;9.726;2024-03-25T03:46:34;95291.13;;;0.78;100.00
54038;BME280;39954;48.844;9.726;2024-03-25T03:47:35;95293.69;;;0.78;100.00
54038;BME280;39954;48.844;9.726;2024-03-25T03:48:36;95294.69;;;0.74;100.00
54038;BME280;39954;48.844;9.726;2024-03-25T03:49:38;95296.31;;;0.77;100.00
54038;BME280;39954;48.844;9.726;2024-03-25T03:50:39;95287.81;;;0.76;100.00
54038;BME280;39954;48.844;9.726;2024-03-25T03:51:40;95289.56;;;0.74;100.00
54038;BME280;39954;48.844;9.726;2024-03-25T03:52:41;95287.03;;;0.73;100.00
54038;BME280;39954;48.844;9.726;2024-03-25T03:53:42;95289.56;;;0.74;100.00
54038;BME280;39954;48.844;9.726;2024-03-25T03:54:43;95288.72;;;0.74;100.00
54038;BME280;39954;48.844;9.726;2024-03-25T03:55:52;95286.19;;;0.72;100.00
54038;BME280;39954;48.844;9.726;2024-03-25T03:56:53;95294.72;;;0.73;100.00
54038;BME280;39954;48.844;9.726;2024-03-25T03:57:55;95293.88;;;0.72;100.00
54038;BME280;39954;48.844;9.726;2024-03-25T03:58:58;95294.78;;;0.71;100.00
54038;BME280;39954;48.844;9.726;2024-03-25T04:00:00;95288.84;;;0.69;100.00
54038;BME280;39954;48.844;9.726;2024-03-25T04:01:01;95298.06;;;0.75;100.00
54038;BME280;39954;48.844;9.726;2024-03-25T04:02:02;95297.22;;;0.74;100.00
54038;BME280;39954;48.844;9.726;2024-03-25T04:03:03;95298.06;;;0.75;100.00
54038;BME280;39954;48.844;9.726;2024-03-25T04:04:04;95299.78;;;0.74;100.00
54038;BME280;39954;48.844;9.726;2024-03-25T04:05:06;95302.31;;;0.76;100.00
54038;BME280;39954;48.844;9.726;2024-03-25T04:06:09;95302.31;;;0.76;100.00
54038;BME280;39954;48.844;9.726;2024-03-25T04:07:11;95303.16;;;0.76;100.00
54038;BME280;39954;48.844;9.726;2024-03-25T04:08:12;95309.09;;;0.77;100.00
54038;BME280;39954;48.844;9.726;2024-03-25T04:09:13;95311.56;;;0.80;100.00
54038;BME280;39954;48.844;9.726;2024-03-25T04:10:14;95318.44;;;0.78;100.00
54038;BME280;39954;48.844;9.726;2024-03-25T04:11:15;95314.09;;;0.80;100.00
54038;BME280;39954;48.844;9.726;2024-03-25T04:12:16;95316.63;;;0.81;100.00
54038;BME280;39954;48.844;9.726;2024-03-25T04:13:17;95316.63;;;0.81;100.00
54038;BME280;39954;48.844;9.726;2024-03-25T04:14:21;95320.78;;;0.84;100.00
54038;BME280;39954;48.844;9.726;2024-03-25T04:15:22;95319.03;;;0.86;100.00
54038;BME280;39954;48.844;9.726;2024-03-25T04:16:23;95317.28;;;0.88;100.00
54038;BME280;39954;48.844;9.726;2024-03-25T04:17:24;95322.28;;;0.91;100.00
54038;BME280;39954;48.844;9.726;2024-03-25T04:18:25;95317.16;;;0.91;100.00
54038;BME280;39954;48.844;9.726;2024-03-25T04:19:26;95322.19;;;0.94;100.00
54038;BME280;39954;48.844;9.726;2024-03-25T04:20:28;95309.41;;;0.94;100.00
54038;BME280;39954;48.844;9.726;2024-03-25T04:21:29;95320.44;;;0.96;100.00
54038;BME280;39954;48.844;9.726;2024-03-25T04:22:30;95314.47;;;0.96;100.00
54038;BME280;39954;48.844;9.726;2024-03-25T04:23:31;95318.72;;;0.95;100.00
54038;BME280;39954;48.844;9.726;2024-03-25T04:24:32;95319.59;;;0.96;100.00
54038;BME280;39954;48.844;9.726;2024-03-25T04:25:34;95321.22;;;0.98;100.00
54038;BME280;39954;48.844;9.726;2024-03-25T04:26:35;95322.09;;;0.97;100.00
54038;BME280;39954;48.844;9.726;2024-03-25T04:27:37;95318.66;;;0.98;100.00
54038;BME280;39954;48.844;9.726;2024-03-25T04:28:38;95322.75;;;1.04;100.00
54038;BME280;39954;48.844;9.726;2024-03-25T04:29:42;95313.38;;;1.03;100.00
54038;BME280;39954;48.844;9.726;2024-03-25T04:30:43;95309.16;;;1.02;100.00
54038;BME280;39954;48.844;9.726;2024-03-25T04:31:44;95312.34;;;1.08;100.00
54038;BME280;39954;48.844;9.726;2024-03-25T04:32:45;95309.97;;;1.04;100.00
54038;BME280;39954;48.844;9.726;2024-03-25T04:33:46;95315.09;;;1.02;100.00
54038;BME280;39954;48.844;9.726;2024-03-25T04:34:47;95318.56;;;1.01;100.00
54038;BME280;39954;48.844;9.726;2024-03-25T04:35:48;95325.31;;;1.04;100.00
54038;BME280;39954;48.844;9.726;2024-03-25T04:36:49;95322.81;;;1.01;100.00
54038;BME280;39954;48.844;9.726;2024-03-25T04:37:50;95329.66;;;1.00;100.00
54038;BME280;39954;48.844;9.726;2024-03-25T04:38:52;95323.72;;;1.00;100.00
54038;BME280;39954;48.844;9.726;2024-03-25T04:39:53;95319.50;;;0.99;100.00
54038;BME280;39954;48.844;9.726;2024-03-25T04:40:54;95315.22;;;0.99;100.00
54038;BME280;39954;48.844;9.726;2024-03-25T04:41:55;95310.94;;;1.00;100.00
54038;BME280;39954;48.844;9.726;2024-03-25T04:42:56;95321.16;;;1.00;100.00
54038;BME280;39954;48.844;9.726;2024-03-25T04:43:57;95317.81;;;0.98;100.00
54038;BME280;39954;48.844;9.726;2024-03-25T04:45:01;95316.97;;;0.97;100.00
54038;BME280;39954;48.844;9.726;2024-03-25T04:46:02;95323.81;;;0.97;100.00
54038;BME280;39954;48.844;9.726;2024-03-25T04:47:03;95322.91;;;0.98;100.00
54038;BME280;39954;48.844;9.726;2024-03-25T04:48:06;95318.72;;;0.95;100.00
54038;BME280;39954;48.844;9.726;2024-03-25T04:49:07;95324.66;;;0.97;100.00
54038;BME280;39954;48.844;9.726;2024-03-25T04:50:09;95324.66;;;0.97;100.00
54038;BME280;39954;48.844;9.726;2024-03-25T04:51:11;95325.44;;;0.99;100.00
54038;BME280;39954;48.844;9.726;2024-03-25T04:52:12;95317.81;;;0.98;100.00
54038;BME280;39954;48.844;9.726;2024-03-25T04:53:13;95317.81;;;0.98;100.00
54038;BME280;39954;48.844;9.726;2024-03-25T04:54:15;95323.84;;;0.95;100.00
54038;BME280;39954;48.844;9.726;2024-03-25T04:55:16;95324.75;;;0.94;100.00
54038;BME280;39954;48.844;9.726;2024-03-25T04:56:17;95321.28;;;0.95;100.00
54038;BME280;39954;48.844;9.726;2024-03-25T04:57:18;95323.84;;;0.95;100.00
54038;BME280;39954;48.844;9.726;2024-03-25T04:58:19;95324.75;;;0.94;100.00
54038;BME280;39954;48.844;9.726;2024-03-25T04:59:20;95322.19;;;0.94;100.00
54038;BME280;39954;48.844;9.726;2024-03-25T05:00:24;95315.41;;;0.93;100.00
54038;BME280;39954;48.844;9.726;2024-03-25T05:01:25;95317.06;;;0.94;100.00
54038;BME280;39954;48.844;9.726;2024-03-25T05:02:26;95314.56;;;0.93;100.00
54038;BME280;39954;48.844;9.726;2024-03-25T05:03:27;95316.97;;;0.97;100.00
54038;BME280;39954;48.844;9.726;2024-03-25T05:04:29;95322.09;;;0.97;100.00
54038;BME280;39954;48.844;9.726;2024-03-25T05:05:30;95323.84;;;0.95;100.00
54038;BME280;39954;48.844;9.726;2024-03-25T05:06:31;95318.81;;;0.94;100.00
54038;BME280;39954;48.844;9.726;2024-03-25T05:07:32;95327.38;;;0.93;100.00
54038;BME280;39954;48.844;9.726;2024-03-25T05:08:33;95310.28;;;0.93;100.00
54038;BME280;39954;48.844;9.726;2024-03-25T05:09:34;95317.13;;;0.93;100.00
54038;BME280;39954;48.844;9.726;2024-03-25T05:10:35;95322.31;;;0.89;100.00
54038;BME280;39954;48.844;9.726;2024-03-25T05:11:36;95320.66;;;0.88;100.00
54038;BME280;39954;48.844;9.726;2024-03-25T05:12:38;95318.94;;;0.89;100.00
54038;BME280;39954;48.844;9.726;2024-03-25T05:13:39;95320.63;;;0.90;100.00
54038;BME280;39954;48.844;9.726;2024-03-25T05:14:40;95324.06;;;0.89;100.00
54038;BME280;39954;48.844;9.726;2024-03-25T05:15:49;95329.16;;;0.89;100.00
54038;BME280;39954;48.844;9.726;2024-03-25T05:16:50;95325.66;;;0.93;100.00
54038;BME280;39954;48.844;9.726;2024-03-25T05:17:51;95332.50;;;0.93;100.00
54038;BME280;39954;48.844;9.726;2024-03-25T05:18:52;95334.19;;;0.92;100.00
54038;BME280;39954;48.844;9.726;2024-03-25T05:19:53;95333.31;;;0.93;100.00
54038;BME280;39954;48.844;9.726;2024-03-25T05:20:54;95334.19;;;0.92;100.00
54038;BME280;39954;48.844;9.726;2024-03-25T05:21:55;95337.63;;;0.91;100.00
54038;BME280;39954;48.844;9.726;2024-03-25T05:22:57;95332.41;;;0.94;100.00
54038;BME280;39954;48.844;9.726;2024-03-25T05:23:58;95329.94;;;0.93;100.00
54038;BME280;39954;48.844;9.726;2024-03-25T05:24:59;95336.75;;;0.92;100.00
54038;BME280;39954;48.844;9.726;2024-03-25T05:26:00;95329.88;;;0.94;100.00
54038;BME280;39954;48.844;9.726;2024-03-25T05:27:01;95334.19;;;0.92;100.00